createdAt,value
2022-12-23T00:00:45.303Z,8.27
2022-12-23T00:03:30.942Z,4.97
2022-12-23T00:06:17.496Z,8.05
2022-12-23T00:09:03.500Z,4.65
2022-12-23T00:12:06.937Z,4.38
2022-12-23T00:15:07.071Z,2.88
2022-12-23T00:17:51.964Z,2.23
2022-12-23T00:20:37.032Z,3.10
2022-12-23T00:23:22.171Z,3.25
2022-12-23T00:26:08.165Z,3.42
2022-12-23T00:28:55.838Z,3.72
2022-12-23T00:31:40.859Z,3.07
2022-12-23T00:34:25.922Z,1.33
2022-12-23T00:37:11.045Z,2.22
2022-12-23T00:40:14.649Z,2.22
2022-12-23T00:43:01.007Z,2.97
2022-12-23T00:45:47.122Z,1.60
2022-12-23T00:48:50.570Z,2.00
2022-12-23T00:51:35.789Z,5.53
2022-12-23T00:54:20.600Z,3.95
2022-12-23T00:57:06.330Z,2.60
2022-12-23T00:59:51.380Z,2.67
2022-12-23T01:02:55.277Z,2.28
2022-12-23T01:05:40.400Z,5.15
2022-12-23T01:08:26.474Z,1.50
2022-12-23T01:11:12.382Z,2.15
2022-12-23T01:13:58.563Z,2.40
2022-12-23T01:16:44.741Z,1.40
2022-12-23T01:19:29.683Z,1.35
2022-12-23T01:22:14.523Z,2.85
2022-12-23T01:24:59.274Z,1.38
2022-12-23T01:27:44.148Z,2.50
2022-12-23T01:30:29.177Z,2.75
2022-12-23T01:33:14.229Z,2.70
2022-12-23T01:36:04.920Z,1.25
2022-12-23T01:38:50.321Z,2.28
2022-12-23T01:41:53.891Z,1.40
2022-12-23T01:45:14.029Z,1.10
2022-12-23T01:48:10.380Z,1.33
2022-12-23T01:51:02.607Z,3.25
2022-12-23T01:53:51.729Z,1.67
2022-12-23T01:56:39.387Z,1.40
2022-12-23T01:59:43.346Z,2.15
2022-12-23T02:02:50.162Z,1.42
2022-12-23T02:05:35.592Z,1.30
2022-12-23T02:08:39.125Z,1.02
2022-12-23T02:11:48.333Z,2.07
2022-12-23T02:15:10.521Z,4.65
2022-12-23T02:18:17.447Z,1.27
2022-12-23T02:21:37.400Z,3.05
2022-12-23T02:24:55.622Z,1.08
2022-12-23T02:28:08.474Z,2.70
2022-12-23T02:31:03.910Z,1.95
2022-12-23T02:34:18.749Z,2.17
2022-12-23T02:37:18.824Z,6.00
2022-12-23T02:40:09.410Z,3.70
2022-12-23T02:43:04.925Z,4.30
2022-12-23T02:46:13.892Z,2.38
2022-12-23T02:49:06.552Z,2.88
2022-12-23T02:51:54.612Z,3.55
2022-12-23T02:54:48.795Z,3.58
2022-12-23T02:57:37.279Z,4.27
2022-12-23T03:00:23.115Z,4.45
2022-12-23T03:03:08.615Z,1.40
2022-12-23T03:05:54.693Z,3.58
2022-12-23T03:08:43.835Z,3.15
2022-12-23T03:11:39.981Z,3.10
2022-12-23T03:14:36.460Z,2.83
2022-12-23T03:17:52.397Z,4.28
2022-12-23T03:21:01.690Z,3.03
2022-12-23T03:24:19.480Z,4.65
2022-12-23T03:27:18.841Z,4.53
2022-12-23T03:30:09.795Z,4.38
2022-12-23T03:33:04.344Z,2.90
2022-12-23T03:35:55.331Z,5.72
2022-12-23T03:38:43.680Z,4.30
2022-12-23T03:41:35.344Z,3.07
2022-12-23T03:44:26.262Z,3.20
2022-12-23T03:47:23.996Z,2.80
2022-12-23T03:50:12.516Z,8.27
2022-12-23T03:53:02.964Z,3.25
2022-12-23T03:55:56.630Z,3.77
2022-12-23T03:59:02.715Z,5.50
2022-12-23T04:02:03.637Z,1.45
2022-12-23T04:05:11.751Z,2.35
2022-12-23T04:08:44.949Z,1.80
2022-12-23T04:11:29.888Z,2.57
2022-12-23T04:14:19.417Z,3.70
2022-12-23T04:17:04.689Z,2.33
2022-12-23T04:19:52.930Z,3.83
2022-12-23T04:22:39.414Z,3.70
2022-12-23T04:25:24.379Z,1.87
2022-12-23T04:28:09.307Z,5.25
2022-12-23T04:30:54.217Z,4.63
2022-12-23T04:33:39.336Z,2.13
2022-12-23T04:36:24.133Z,5.35
2022-12-23T04:39:09.756Z,2.57
2022-12-23T04:41:54.745Z,2.47
2022-12-23T04:44:39.932Z,2.30
2022-12-23T04:47:25.230Z,2.30
2022-12-23T04:50:14.614Z,3.60
2022-12-23T04:52:59.614Z,2.67
2022-12-23T04:55:49.222Z,5.05
2022-12-23T04:58:34.560Z,3.38
2022-12-23T05:01:19.432Z,4.00
2022-12-23T05:04:04.783Z,2.03
2022-12-23T05:06:51.028Z,2.70
2022-12-23T05:09:35.955Z,2.17
2022-12-23T05:12:20.777Z,5.00
2022-12-23T05:15:06.203Z,4.95
2022-12-23T05:17:51.235Z,2.20
2022-12-23T05:20:36.486Z,2.93
2022-12-23T05:23:21.658Z,2.58
2022-12-23T05:26:06.804Z,5.07
2022-12-23T05:28:51.877Z,2.92
2022-12-23T05:31:36.943Z,5.85
2022-12-23T05:34:22.136Z,3.40
2022-12-23T05:37:07.448Z,3.20
2022-12-23T05:39:52.677Z,4.68
2022-12-23T05:42:37.785Z,6.13
2022-12-23T05:45:22.775Z,6.82
2022-12-23T05:48:08.213Z,3.53
2022-12-23T05:50:53.592Z,4.97
2022-12-23T05:53:38.628Z,6.18
2022-12-23T05:56:23.667Z,1.63
2022-12-23T05:59:08.819Z,2.17
2022-12-23T06:01:54.404Z,3.90
2022-12-23T06:04:39.507Z,4.32
2022-12-23T06:07:24.372Z,4.22
2022-12-23T06:10:10.697Z,4.55
2022-12-23T06:12:56.514Z,3.97
2022-12-23T06:15:41.535Z,7.87
2022-12-23T06:18:26.267Z,7.15
2022-12-23T06:21:11.331Z,4.07
2022-12-23T06:23:56.017Z,4.80
2022-12-23T06:26:42.371Z,3.78
2022-12-23T06:29:27.632Z,5.30
2022-12-23T06:32:12.762Z,2.92
2022-12-23T06:34:57.957Z,3.63
2022-12-23T06:37:43.177Z,1.52
2022-12-23T06:40:29.118Z,3.63
2022-12-23T06:43:13.932Z,3.43
2022-12-23T06:45:59.164Z,4.07
2022-12-23T06:48:44.320Z,2.65
2022-12-23T06:51:29.589Z,2.15
2022-12-23T06:54:14.539Z,2.75
2022-12-23T06:56:59.513Z,4.80
2022-12-23T06:59:44.342Z,3.08
2022-12-23T07:02:29.519Z,2.60
2022-12-23T07:05:14.899Z,2.55
2022-12-23T07:07:59.900Z,2.00
2022-12-23T07:10:45.540Z,3.80
2022-12-23T07:13:32.714Z,2.83
2022-12-23T07:16:17.848Z,3.00
2022-12-23T07:19:02.984Z,1.95
2022-12-23T07:21:47.925Z,3.95
2022-12-23T07:24:32.880Z,2.73
2022-12-23T07:27:18.029Z,4.20
2022-12-23T07:30:03.651Z,4.75
2022-12-23T07:32:49.798Z,3.22
2022-12-23T07:35:34.597Z,4.30
2022-12-23T07:38:19.707Z,3.97
2022-12-23T07:41:04.918Z,2.72
2022-12-23T07:43:49.971Z,3.58
2022-12-23T07:46:34.890Z,1.35
2022-12-23T07:49:20.033Z,5.43
2022-12-23T07:52:05.151Z,2.53
2022-12-23T07:54:50.102Z,3.60
2022-12-23T07:57:37.799Z,1.83
2022-12-23T08:00:22.836Z,2.20
2022-12-23T08:03:08.259Z,2.88
2022-12-23T08:06:05.119Z,4.47
2022-12-23T08:08:49.805Z,2.75
2022-12-23T08:11:34.841Z,3.05
2022-12-23T08:14:19.837Z,2.25
2022-12-23T08:17:05.334Z,3.20
2022-12-23T08:19:50.382Z,1.50
2022-12-23T08:22:35.212Z,4.30
2022-12-23T08:25:20.093Z,1.48
2022-12-23T08:28:05.097Z,2.20
2022-12-23T08:30:49.947Z,1.65
2022-12-23T08:33:36.609Z,2.30
2022-12-23T08:36:31.106Z,2.67
2022-12-23T08:39:18.531Z,3.45
2022-12-23T08:42:03.528Z,7.30
2022-12-23T08:44:48.838Z,34.80
2022-12-23T08:47:34.117Z,17.73
2022-12-23T08:50:19.888Z,12.00
2022-12-23T08:53:05.932Z,7.50
2022-12-23T08:55:50.899Z,5.95
2022-12-23T08:58:37.933Z,6.88
2022-12-23T09:01:26.053Z,5.27
2022-12-23T09:04:11.036Z,5.30
2022-12-23T09:06:56.114Z,3.00
2022-12-23T09:09:41.305Z,4.20
2022-12-23T09:12:26.534Z,2.17
2022-12-23T09:15:12.096Z,4.07
2022-12-23T09:17:56.957Z,3.50
2022-12-23T09:20:42.049Z,2.00
2022-12-23T09:23:27.609Z,5.93
2022-12-23T09:26:20.835Z,4.35
2022-12-23T09:29:05.994Z,4.27
2022-12-23T09:31:51.121Z,5.57
2022-12-23T09:34:36.180Z,5.55
2022-12-23T09:37:21.240Z,8.43
2022-12-23T09:40:07.266Z,5.22
2022-12-23T09:43:09.754Z,4.90
2022-12-23T09:46:15.584Z,5.65
2022-12-23T09:49:10.998Z,4.05
2022-12-23T09:52:03.149Z,6.03
2022-12-23T09:54:52.442Z,7.93
2022-12-23T09:57:50.901Z,5.30
2022-12-23T10:00:45.205Z,7.10
2022-12-23T10:03:42.865Z,5.70
2022-12-23T10:06:29.254Z,9.13
2022-12-23T10:09:17.268Z,6.88
2022-12-23T10:12:11.082Z,9.10
2022-12-23T10:15:00.824Z,8.52
2022-12-23T10:17:46.562Z,10.43
2022-12-23T10:21:01.522Z,5.93
2022-12-23T10:23:51.020Z,6.70
2022-12-23T10:26:45.363Z,9.70
2022-12-23T10:29:31.941Z,8.23
2022-12-23T10:32:17.274Z,16.50
2022-12-23T10:35:15.600Z,6.40
2022-12-23T10:38:28.508Z,10.10
2022-12-23T10:41:33.899Z,6.93
2022-12-23T10:44:41.315Z,5.50
2022-12-23T10:47:50.554Z,5.82
2022-12-23T10:50:51.060Z,8.07
2022-12-23T10:53:43.934Z,6.28
2022-12-23T10:56:30.721Z,9.93
2022-12-23T10:59:20.506Z,7.93
2022-12-23T11:02:23.393Z,7.32
2022-12-23T11:05:16.854Z,8.15
2022-12-23T11:08:02.335Z,7.53
2022-12-23T11:10:48.529Z,5.90
2022-12-23T11:13:40.422Z,7.53
2022-12-23T11:16:28.397Z,6.07
2022-12-23T11:19:16.784Z,6.00
2022-12-23T11:22:02.176Z,6.78
2022-12-23T11:24:47.388Z,5.87
2022-12-23T11:27:32.967Z,5.65
2022-12-23T11:30:19.055Z,9.05
2022-12-23T11:33:04.564Z,4.70
2022-12-23T11:36:00.426Z,7.38
2022-12-23T11:39:02.110Z,6.47
2022-12-23T11:41:50.677Z,8.88
2022-12-23T11:44:45.959Z,5.28
2022-12-23T11:47:41.536Z,5.07
2022-12-23T11:50:36.969Z,9.73
2022-12-23T11:53:24.305Z,5.60
2022-12-23T11:56:13.472Z,4.15
2022-12-23T11:59:07.668Z,4.43
2022-12-23T12:01:53.623Z,3.60
2022-12-23T12:04:41.135Z,3.35
2022-12-23T12:07:26.960Z,4.50
2022-12-23T12:10:42.369Z,2.80
2022-12-23T12:13:41.656Z,3.88
2022-12-23T12:16:55.766Z,3.50
2022-12-23T12:19:53.621Z,2.05
2022-12-23T12:22:49.200Z,4.20
2022-12-23T12:25:44.119Z,4.35
2022-12-23T12:28:34.931Z,7.43
2022-12-23T12:31:34.238Z,6.50
2022-12-23T12:34:53.453Z,5.45
2022-12-23T12:37:48.121Z,5.20
2022-12-23T12:40:44.699Z,5.35
2022-12-23T12:43:46.357Z,5.90
2022-12-23T12:46:59.657Z,5.47
2022-12-23T12:49:56.907Z,5.80
2022-12-23T12:52:42.860Z,11.47
2022-12-23T12:55:37.705Z,8.35
2022-12-23T12:58:24.294Z,7.47
2022-12-23T13:01:37.492Z,10.50
2022-12-23T13:04:41.962Z,5.85
2022-12-23T13:07:29.648Z,5.60
2022-12-23T13:10:45.359Z,9.30
2022-12-23T13:13:48.265Z,4.93
2022-12-23T13:17:01.559Z,2.45
2022-12-23T13:19:52.607Z,5.90
2022-12-23T13:22:38.520Z,4.87
2022-12-23T13:25:41.124Z,7.00
2022-12-23T13:28:29.289Z,3.50
2022-12-23T13:31:33.226Z,4.50
2022-12-23T13:34:40.433Z,6.25
2022-12-23T13:37:36.105Z,9.70
2022-12-23T13:40:29.352Z,7.70
2022-12-23T13:43:18.811Z,8.13
2022-12-23T13:46:21.664Z,5.22
2022-12-23T13:49:24.750Z,10.50
2022-12-23T13:52:15.800Z,5.37
2022-12-23T13:55:24.204Z,5.90
2022-12-23T13:58:18.592Z,7.63
2022-12-23T14:01:09.273Z,7.78
2022-12-23T14:03:54.134Z,5.57
2022-12-23T14:06:38.821Z,6.97
2022-12-23T14:09:36.927Z,4.53
2022-12-23T14:12:37.135Z,4.13
2022-12-23T14:15:42.388Z,5.95
2022-12-23T14:18:50.717Z,4.63
2022-12-23T14:21:57.749Z,9.87
2022-12-23T14:25:04.380Z,4.68
2022-12-23T14:28:18.817Z,5.30
2022-12-23T14:31:05.305Z,4.13
2022-12-23T14:33:51.256Z,3.55
2022-12-23T14:36:36.238Z,5.77
2022-12-23T14:39:31.303Z,7.20
2022-12-23T14:42:40.349Z,4.97
2022-12-23T14:45:35.900Z,7.82
2022-12-23T14:48:36.127Z,8.80
2022-12-23T14:51:39.333Z,9.23
2022-12-23T14:54:39.352Z,5.18
2022-12-23T14:57:28.518Z,8.77
2022-12-23T15:00:13.451Z,8.95
2022-12-23T15:03:00.660Z,7.68
2022-12-23T15:05:46.196Z,15.03
2022-12-23T15:08:36.564Z,19.25
2022-12-23T15:11:29.531Z,45.60
2022-12-23T15:14:28.320Z,37.50
2022-12-23T15:17:28.383Z,13.98
2022-12-23T15:20:18.510Z,11.20
2022-12-23T15:23:30.176Z,6.32
2022-12-23T15:26:15.236Z,8.35
2022-12-23T15:29:01.066Z,6.72
2022-12-23T15:31:50.400Z,3.97
2022-12-23T15:34:35.229Z,3.27
2022-12-23T15:37:29.204Z,6.45
2022-12-23T15:40:31.910Z,4.82
2022-12-23T15:43:23.778Z,2.90
2022-12-23T15:46:16.103Z,2.80
2022-12-23T15:49:01.812Z,2.20
2022-12-23T15:52:18.100Z,1.65
2022-12-23T15:55:23.761Z,1.38
2022-12-23T15:58:17.817Z,2.05
2022-12-23T16:01:03.653Z,1.63
2022-12-23T16:03:52.672Z,2.37
2022-12-23T16:06:38.919Z,1.80
2022-12-23T16:09:31.933Z,1.25
2022-12-23T16:12:23.657Z,1.70
2022-12-23T16:15:29.719Z,0.95
2022-12-23T16:18:24.164Z,1.30
2022-12-23T16:21:13.787Z,1.60
2022-12-23T16:23:59.867Z,1.75
2022-12-23T16:26:44.908Z,1.52
2022-12-23T16:29:33.352Z,2.35
2022-12-23T16:32:19.342Z,2.00
2022-12-23T16:35:12.432Z,1.58
2022-12-23T16:38:09.841Z,2.08
2022-12-23T16:40:56.646Z,1.33
2022-12-23T16:43:49.422Z,1.95
2022-12-23T16:46:41.905Z,0.80
2022-12-23T16:49:33.418Z,4.07
2022-12-23T16:52:19.070Z,2.42
2022-12-23T16:55:12.849Z,2.75
2022-12-23T16:57:57.574Z,2.47
2022-12-23T17:00:42.616Z,8.00
2022-12-23T17:03:27.850Z,5.90
2022-12-23T17:06:14.905Z,7.55
2022-12-23T17:08:59.837Z,5.57
2022-12-23T17:11:48.438Z,7.30
2022-12-23T17:14:33.341Z,6.07
2022-12-23T17:17:18.562Z,7.38
2022-12-23T17:20:04.025Z,6.90
2022-12-23T17:22:52.313Z,7.10
2022-12-23T17:25:36.928Z,5.45
2022-12-23T17:28:23.140Z,5.13
2022-12-23T17:31:14.196Z,9.85
2022-12-23T17:34:01.689Z,6.00
2022-12-23T17:36:50.420Z,5.90
2022-12-23T17:39:35.896Z,7.75
2022-12-23T17:42:25.825Z,6.93
2022-12-23T17:45:31.750Z,5.75
2022-12-23T17:48:20.822Z,6.13
2022-12-23T17:51:15.520Z,6.25
2022-12-23T17:54:00.558Z,9.35
2022-12-23T17:56:45.505Z,13.70
2022-12-23T17:59:30.401Z,9.30
2022-12-23T18:02:21.129Z,12.55
2022-12-23T18:05:20.331Z,6.82
2022-12-23T18:08:05.237Z,5.03
2022-12-23T18:10:50.216Z,10.33
2022-12-23T18:13:36.156Z,8.10
2022-12-23T18:16:21.312Z,6.97
2022-12-23T18:19:15.157Z,9.98
2022-12-23T18:22:00.229Z,8.77
2022-12-23T18:24:46.575Z,9.00
2022-12-23T18:27:31.418Z,9.85
2022-12-23T18:30:17.767Z,10.93
2022-12-23T18:33:02.626Z,8.40
2022-12-23T18:35:49.528Z,10.18
2022-12-23T18:38:34.312Z,6.77
2022-12-23T18:41:20.924Z,9.98
2022-12-23T18:44:06.166Z,3.88
2022-12-23T18:46:51.286Z,6.25
2022-12-23T18:49:37.179Z,8.02
2022-12-23T18:52:21.935Z,10.60
2022-12-23T18:55:07.391Z,8.52
2022-12-23T18:57:52.525Z,5.88
2022-12-23T19:00:37.651Z,4.88
2022-12-23T19:03:25.757Z,10.98
2022-12-23T19:06:16.281Z,9.27
2022-12-23T19:09:01.484Z,6.43
2022-12-23T19:11:48.111Z,10.43
2022-12-23T19:14:33.318Z,10.77
2022-12-23T19:17:18.172Z,9.50
2022-12-23T19:20:04.565Z,12.53
2022-12-23T19:22:49.554Z,7.95
2022-12-23T19:25:34.537Z,6.93
2022-12-23T19:28:20.024Z,11.15
2022-12-23T19:31:13.005Z,7.07
2022-12-23T19:33:59.617Z,10.67
2022-12-23T19:36:44.765Z,9.02
2022-12-23T19:39:29.707Z,5.82
2022-12-23T19:42:14.778Z,9.15
2022-12-23T19:45:00.563Z,9.45
2022-12-23T19:47:45.381Z,6.77
2022-12-23T19:50:30.484Z,9.77
2022-12-23T19:53:15.634Z,12.93
2022-12-23T19:56:06.995Z,8.02
2022-12-23T19:58:51.896Z,7.47
2022-12-23T20:01:36.973Z,12.93
2022-12-23T20:04:24.765Z,11.15
2022-12-23T20:07:09.980Z,8.73
2022-12-23T20:09:54.808Z,8.27
2022-12-23T20:12:40.004Z,3.80
2022-12-23T20:15:25.176Z,5.77
2022-12-23T20:18:10.376Z,10.65
2022-12-23T20:20:55.722Z,11.75
2022-12-23T20:23:40.951Z,6.60
2022-12-23T20:26:27.561Z,12.52
2022-12-23T20:29:12.568Z,3.93
2022-12-23T20:31:57.601Z,6.45
2022-12-23T20:34:42.462Z,4.72
2022-12-23T20:37:27.592Z,8.35
2022-12-23T20:40:14.462Z,6.20
2022-12-23T20:42:59.505Z,3.67
2022-12-23T20:45:46.197Z,8.43
2022-12-23T20:48:34.497Z,4.95
2022-12-23T20:51:23.697Z,9.45
2022-12-23T20:54:09.154Z,8.55
2022-12-23T20:56:54.405Z,5.33
2022-12-23T20:59:39.469Z,14.20
2022-12-23T21:02:25.229Z,11.95
2022-12-23T21:05:10.248Z,7.68
2022-12-23T21:07:55.391Z,1.85
2022-12-23T21:10:40.533Z,9.30
2022-12-23T21:13:25.561Z,13.45
2022-12-23T21:16:12.876Z,8.38
2022-12-23T21:18:58.869Z,7.55
2022-12-23T21:21:44.499Z,9.38
2022-12-23T21:24:29.610Z,2.37
2022-12-23T21:27:14.783Z,9.32
2022-12-23T21:29:59.898Z,8.85
2022-12-23T21:32:44.630Z,6.55
2022-12-23T21:35:29.504Z,6.28
2022-12-23T21:38:14.665Z,13.87
2022-12-23T21:41:01.671Z,5.53
2022-12-23T21:43:47.981Z,8.50
2022-12-23T21:46:33.190Z,3.60
2022-12-23T21:49:19.502Z,9.45
2022-12-23T21:52:04.500Z,4.60
2022-12-23T21:54:49.626Z,4.60
2022-12-23T21:57:34.795Z,9.07
2022-12-23T22:00:20.067Z,9.02
2022-12-23T22:03:05.118Z,13.20
2022-12-23T22:05:50.114Z,11.73
2022-12-23T22:08:35.428Z,11.00
2022-12-23T22:11:23.220Z,10.15
2022-12-23T22:14:12.310Z,8.40
2022-12-23T22:16:57.418Z,3.95
2022-12-23T22:19:42.391Z,6.73
2022-12-23T22:22:27.485Z,6.30
2022-12-23T22:25:12.576Z,5.45
2022-12-23T22:27:57.400Z,9.02
2022-12-23T22:30:42.511Z,19.20
2022-12-23T22:33:27.654Z,13.70
2022-12-23T22:36:14.968Z,8.35
2022-12-23T22:39:01.824Z,8.50
2022-12-23T22:41:46.917Z,5.63
2022-12-23T22:44:31.970Z,10.32
2022-12-23T22:47:16.985Z,11.20
2022-12-23T22:50:02.175Z,5.03
2022-12-23T22:52:47.209Z,11.40
2022-12-23T22:55:32.386Z,7.57
2022-12-23T22:58:17.509Z,8.13
2022-12-23T23:01:02.617Z,12.87
2022-12-23T23:03:50.879Z,5.20
2022-12-23T23:06:38.378Z,10.02
2022-12-23T23:09:23.248Z,6.20
2022-12-23T23:12:08.322Z,10.32
2022-12-23T23:14:53.278Z,4.60
2022-12-23T23:17:38.360Z,11.20
2022-12-23T23:20:23.525Z,11.85
2022-12-23T23:23:08.449Z,15.98
2022-12-23T23:25:53.514Z,3.47
2022-12-23T23:28:39.850Z,15.93
2022-12-23T23:31:41.928Z,9.35
2022-12-23T23:34:28.143Z,10.82
2022-12-23T23:37:14.026Z,13.00
2022-12-23T23:39:59.046Z,9.10
2022-12-23T23:42:44.222Z,10.27
2022-12-23T23:45:30.153Z,13.90
2022-12-23T23:48:16.038Z,10.63
2022-12-23T23:51:05.944Z,12.70
2022-12-23T23:53:50.989Z,7.30
2022-12-23T23:56:38.555Z,14.50
2022-12-23T23:59:23.894Z,9.40
